createdAt,value
2018-09-12T00:00:17.859Z,16.20
2018-09-12T00:02:45.944Z,15.76
2018-09-12T00:05:14.551Z,15.85
2018-09-12T00:07:42.435Z,15.59
2018-09-12T00:10:11.348Z,15.94
2018-09-12T00:12:42.756Z,15.91
2018-09-12T00:15:10.744Z,15.37
2018-09-12T00:17:38.709Z,15.14
2018-09-12T00:20:06.737Z,15.26
2018-09-12T00:22:34.675Z,15.32
2018-09-12T00:25:02.881Z,15.39
2018-09-12T00:27:30.849Z,15.10
2018-09-12T00:29:58.807Z,14.69
2018-09-12T00:32:26.702Z,14.44
2018-09-12T00:34:54.574Z,14.20
2018-09-12T00:37:22.578Z,14.05
2018-09-12T00:39:50.556Z,13.92
2018-09-12T00:42:18.513Z,13.99
2018-09-12T00:44:46.635Z,13.82
2018-09-12T00:47:14.631Z,13.59
2018-09-12T00:49:42.846Z,13.70
2018-09-12T00:52:10.804Z,13.70
2018-09-12T00:54:39.212Z,13.64
2018-09-12T00:57:07.202Z,13.53
2018-09-12T00:59:35.170Z,13.70
2018-09-12T01:02:03.091Z,13.65
2018-09-12T01:04:31.241Z,13.68
2018-09-12T01:06:59.267Z,13.66
2018-09-12T01:09:27.238Z,13.60
2018-09-12T01:11:55.248Z,13.64
2018-09-12T01:14:23.393Z,13.63
2018-09-12T01:16:54.342Z,13.60
2018-09-12T01:19:22.348Z,13.59
2018-09-12T01:21:50.379Z,13.61
2018-09-12T01:24:18.379Z,13.70
2018-09-12T01:26:46.494Z,13.62
2018-09-12T01:29:14.774Z,13.61
2018-09-12T01:31:42.886Z,13.40
2018-09-12T01:34:10.880Z,13.32
2018-09-12T01:36:39.196Z,13.54
2018-09-12T01:39:08.194Z,13.45
2018-09-12T01:41:36.445Z,13.22
2018-09-12T01:44:04.440Z,13.10
2018-09-12T01:46:32.603Z,13.11
2018-09-12T01:49:01.114Z,13.44
2018-09-12T01:51:29.131Z,13.03
2018-09-12T01:53:57.037Z,13.15
2018-09-12T01:56:25.008Z,13.16
2018-09-12T01:58:53.282Z,13.45
2018-09-12T02:01:21.280Z,13.25
2018-09-12T02:03:49.284Z,13.37
2018-09-12T02:06:17.184Z,13.41
2018-09-12T02:08:45.136Z,13.55
2018-09-12T02:11:13.059Z,13.65
2018-09-12T02:13:41.183Z,13.51
2018-09-12T02:16:09.202Z,13.56
2018-09-12T02:18:37.434Z,13.42
2018-09-12T02:21:05.387Z,13.47
2018-09-12T02:23:33.413Z,13.73
2018-09-12T02:26:01.293Z,13.85
2018-09-12T02:28:29.201Z,13.94
2018-09-12T02:30:57.259Z,14.04
2018-09-12T02:33:25.246Z,14.05
2018-09-12T02:35:58.674Z,14.05
2018-09-12T02:38:26.558Z,13.94
2018-09-12T02:40:54.624Z,13.81
2018-09-12T02:43:22.576Z,13.93
2018-09-12T02:45:50.514Z,13.92
2018-09-12T02:48:18.592Z,13.88
2018-09-12T02:50:46.550Z,14.05
2018-09-12T02:53:14.390Z,14.11
2018-09-12T02:55:42.324Z,14.18
2018-09-12T02:58:10.271Z,14.17
2018-09-12T03:00:38.166Z,14.04
2018-09-12T03:03:06.573Z,14.07
2018-09-12T03:05:34.614Z,14.21
2018-09-12T03:08:02.635Z,13.86
2018-09-12T03:10:30.969Z,13.70
2018-09-12T03:12:58.970Z,13.59
2018-09-12T03:15:26.956Z,13.60
2018-09-12T03:17:54.995Z,13.30
2018-09-12T03:20:23.038Z,13.35
2018-09-12T03:22:50.934Z,13.34
2018-09-12T03:25:18.859Z,13.29
2018-09-12T03:27:46.730Z,13.52
2018-09-12T03:30:14.727Z,13.46
2018-09-12T03:32:42.734Z,13.60
2018-09-12T03:35:10.684Z,13.55
2018-09-12T03:37:38.560Z,13.65
2018-09-12T03:40:06.841Z,13.42
2018-09-12T03:42:34.803Z,13.40
2018-09-12T03:45:02.859Z,13.12
2018-09-12T03:47:30.799Z,13.04
2018-09-12T03:49:58.722Z,13.00
2018-09-12T03:52:26.788Z,13.04
2018-09-12T03:54:54.721Z,12.82
2018-09-12T03:57:22.643Z,12.76
2018-09-12T03:59:50.659Z,12.64
2018-09-12T04:02:18.531Z,12.68
2018-09-12T04:04:46.566Z,12.41
2018-09-12T04:07:14.486Z,12.66
2018-09-12T04:09:42.674Z,12.71
2018-09-12T04:12:10.575Z,13.01
2018-09-12T04:14:38.468Z,13.35
2018-09-12T04:17:06.441Z,13.52
2018-09-12T04:19:34.941Z,13.23
2018-09-12T04:22:03.048Z,13.24
2018-09-12T04:24:31.161Z,13.38
2018-09-12T04:26:59.202Z,13.57
2018-09-12T04:29:27.106Z,13.60
2018-09-12T04:31:55.056Z,13.47
2018-09-12T04:34:23.026Z,13.84
2018-09-12T04:36:51.303Z,13.72
2018-09-12T04:39:19.266Z,13.90
2018-09-12T04:41:49.393Z,14.19
2018-09-12T04:44:17.416Z,13.99
2018-09-12T04:46:45.549Z,13.84
2018-09-12T04:49:13.728Z,13.88
2018-09-12T04:51:42.110Z,13.86
2018-09-12T04:54:10.024Z,13.45
2018-09-12T04:56:38.986Z,13.45
2018-09-12T04:59:06.997Z,13.26
2018-09-12T05:01:34.901Z,13.30
2018-09-12T05:04:02.901Z,13.39
2018-09-12T05:06:30.922Z,13.40
2018-09-12T05:08:58.892Z,13.19
2018-09-12T05:11:27.105Z,13.56
2018-09-12T05:13:55.075Z,13.62
2018-09-12T05:16:23.073Z,13.46
2018-09-12T05:18:51.046Z,13.99
2018-09-12T05:21:19.054Z,14.22
2018-09-12T05:23:46.994Z,14.33
2018-09-12T05:26:14.869Z,14.51
2018-09-12T05:28:42.842Z,14.63
2018-09-12T05:31:10.898Z,14.85
2018-09-12T05:33:38.843Z,14.83
2018-09-12T05:36:07.023Z,14.74
2018-09-12T05:38:34.942Z,14.83
2018-09-12T05:41:02.946Z,14.99
2018-09-12T05:43:30.854Z,15.04
2018-09-12T05:45:58.789Z,14.87
2018-09-12T05:48:26.781Z,15.07
2018-09-12T05:50:54.751Z,15.04
2018-09-12T05:53:22.883Z,15.32
2018-09-12T05:55:50.949Z,15.54
2018-09-12T05:58:18.911Z,15.36
2018-09-12T06:00:47.166Z,15.31
2018-09-12T06:03:15.349Z,15.29
2018-09-12T06:05:44.782Z,15.18
2018-09-12T06:08:15.496Z,15.41
2018-09-12T06:10:43.660Z,16.18
2018-09-12T06:13:11.653Z,16.89
2018-09-12T06:15:39.880Z,17.01
2018-09-12T06:18:07.832Z,16.11
2018-09-12T06:20:36.081Z,15.88
2018-09-12T06:23:03.983Z,16.02
2018-09-12T06:25:31.944Z,16.19
2018-09-12T06:27:59.986Z,16.55
2018-09-12T06:30:28.122Z,16.94
2018-09-12T06:32:56.166Z,16.93
2018-09-12T06:35:24.180Z,17.09
2018-09-12T06:37:52.266Z,17.48
2018-09-12T06:40:20.454Z,17.16
2018-09-12T06:42:48.561Z,17.68
2018-09-12T06:45:16.688Z,18.73
2018-09-12T06:47:45.059Z,18.28
2018-09-12T06:50:12.985Z,19.11
2018-09-12T06:52:40.966Z,19.98
2018-09-12T06:55:09.027Z,20.47
2018-09-12T06:57:37.176Z,21.42
2018-09-12T07:00:05.536Z,20.76
2018-09-12T07:02:33.668Z,21.24
2018-09-12T07:05:01.625Z,21.12
2018-09-12T07:07:29.729Z,21.63
2018-09-12T07:09:57.606Z,21.30
2018-09-12T07:12:25.562Z,21.80
2018-09-12T07:14:55.134Z,22.89
2018-09-12T07:17:23.110Z,22.79
2018-09-12T07:19:51.178Z,24.33
2018-09-12T07:22:19.371Z,25.86
2018-09-12T07:24:47.549Z,25.12
2018-09-12T07:27:15.418Z,25.22
2018-09-12T07:29:44.063Z,25.98
2018-09-12T07:32:12.560Z,26.27
2018-09-12T07:34:40.763Z,27.05
2018-09-12T07:37:09.572Z,26.96
2018-09-12T07:39:43.140Z,27.55
2018-09-12T07:42:11.594Z,27.79
2018-09-12T07:44:41.036Z,28.00
2018-09-12T07:47:09.714Z,27.59
2018-09-12T07:49:38.033Z,26.75
2018-09-12T07:52:06.030Z,26.68
2018-09-12T07:54:35.094Z,25.93
2018-09-12T07:57:03.684Z,25.83
2018-09-12T07:59:38.715Z,24.09
2018-09-12T08:02:07.642Z,22.71
2018-09-12T08:04:35.583Z,22.78
2018-09-12T08:07:03.980Z,22.48
2018-09-12T08:09:31.926Z,22.22
2018-09-12T08:12:00.122Z,22.56
2018-09-12T08:14:28.161Z,22.82
2018-09-12T08:16:56.310Z,23.21
2018-09-12T08:19:24.599Z,23.71
2018-09-12T08:21:52.665Z,24.17
2018-09-12T08:24:20.848Z,24.00
2018-09-12T08:26:48.840Z,24.63
2018-09-12T08:29:16.725Z,24.49
2018-09-12T08:31:44.916Z,23.72
2018-09-12T08:34:12.925Z,24.11
2018-09-12T08:36:41.163Z,23.93
2018-09-12T08:39:09.502Z,23.76
2018-09-12T08:41:37.566Z,23.41
2018-09-12T08:44:05.983Z,24.28
2018-09-12T08:46:34.211Z,24.24
2018-09-12T08:49:02.265Z,23.53
2018-09-12T08:51:30.294Z,23.49
2018-09-12T08:53:58.409Z,23.42
2018-09-12T08:56:26.606Z,23.83
2018-09-12T08:58:54.951Z,23.94
2018-09-12T09:01:22.976Z,24.55
2018-09-12T09:03:51.133Z,25.21
2018-09-12T09:06:19.297Z,24.72
2018-09-12T09:08:47.416Z,25.05
2018-09-12T09:11:15.328Z,25.32
2018-09-12T09:13:43.437Z,25.92
2018-09-12T09:16:11.503Z,25.86
2018-09-12T09:18:39.622Z,26.07
2018-09-12T09:21:07.919Z,26.06
2018-09-12T09:23:35.946Z,26.53
2018-09-12T09:26:03.983Z,26.73
2018-09-12T09:28:32.148Z,25.37
2018-09-12T09:31:00.236Z,25.05
2018-09-12T09:33:28.334Z,25.58
2018-09-12T09:35:56.504Z,25.04
2018-09-12T09:38:24.485Z,23.90
2018-09-12T09:40:52.577Z,23.47
2018-09-12T09:43:20.645Z,23.78
2018-09-12T09:45:48.690Z,23.71
2018-09-12T09:48:16.774Z,23.81
2018-09-12T09:50:45.763Z,24.59
2018-09-12T09:53:13.744Z,25.50
2018-09-12T09:55:41.826Z,26.12
2018-09-12T09:58:09.874Z,26.71
2018-09-12T10:00:43.246Z,26.93
2018-09-12T10:03:17.545Z,27.04
2018-09-12T10:05:51.240Z,26.33
2018-09-12T10:08:24.524Z,25.31
2018-09-12T10:11:01.434Z,25.58
2018-09-12T10:13:29.409Z,24.78
2018-09-12T10:15:58.296Z,25.67
2018-09-12T10:18:25.886Z,25.72
2018-09-12T10:20:54.008Z,25.82
2018-09-12T10:23:22.969Z,25.52
2018-09-12T10:25:51.533Z,25.70
2018-09-12T10:28:19.658Z,25.75
2018-09-12T10:30:47.895Z,25.66
2018-09-12T10:33:16.059Z,25.30
2018-09-12T10:35:44.070Z,23.80
2018-09-12T10:38:12.103Z,24.93
2018-09-12T10:40:40.063Z,25.28
2018-09-12T10:43:10.479Z,25.18
2018-09-12T10:45:38.754Z,24.63
2018-09-12T10:48:09.207Z,24.73
2018-09-12T10:50:37.719Z,24.72
2018-09-12T10:53:08.350Z,24.89
2018-09-12T10:55:36.466Z,25.06
2018-09-12T10:58:04.468Z,25.53
2018-09-12T11:00:32.512Z,25.58
2018-09-12T11:03:00.547Z,25.60
2018-09-12T11:05:28.621Z,25.52
2018-09-12T11:07:56.627Z,25.29
2018-09-12T11:10:24.640Z,25.49
2018-09-12T11:12:52.520Z,25.87
2018-09-12T11:15:20.809Z,25.74
2018-09-12T11:17:48.798Z,25.71
2018-09-12T11:20:17.814Z,25.60
2018-09-12T11:22:45.768Z,25.35
2018-09-12T11:25:13.754Z,25.06
2018-09-12T11:27:41.784Z,25.05
2018-09-12T11:30:09.812Z,24.96
2018-09-12T11:32:37.830Z,24.78
2018-09-12T11:35:06.292Z,24.54
2018-09-12T11:37:34.228Z,24.46
2018-09-12T11:40:02.264Z,24.35
2018-09-12T11:42:31.202Z,24.38
2018-09-12T11:44:59.248Z,24.52
2018-09-12T11:47:27.251Z,24.73
2018-09-12T11:49:59.738Z,24.55
2018-09-12T11:52:27.987Z,24.91
2018-09-12T11:54:56.656Z,25.01
2018-09-12T11:57:24.590Z,24.60
2018-09-12T11:59:52.474Z,24.69
2018-09-12T12:02:20.787Z,24.96
2018-09-12T12:04:49.304Z,24.76
2018-09-12T12:07:17.289Z,24.62
2018-09-12T12:09:45.722Z,24.73
2018-09-12T12:12:13.811Z,24.75
2018-09-12T12:14:42.195Z,25.49
2018-09-12T12:17:10.179Z,26.27
2018-09-12T12:19:38.084Z,25.30
2018-09-12T12:22:06.101Z,24.97
2018-09-12T12:24:33.999Z,24.77
2018-09-12T12:27:02.729Z,24.30
2018-09-12T12:29:30.814Z,24.38
2018-09-12T12:31:59.024Z,24.30
2018-09-12T12:34:27.050Z,24.29
2018-09-12T12:36:54.927Z,24.23
2018-09-12T12:39:23.013Z,24.30
2018-09-12T12:41:50.994Z,24.44
2018-09-12T12:44:19.007Z,24.59
2018-09-12T12:46:47.266Z,24.84
2018-09-12T12:49:15.171Z,24.88
2018-09-12T12:51:43.164Z,25.01
2018-09-12T12:54:11.112Z,24.64
2018-09-12T12:56:39.266Z,24.63
2018-09-12T12:59:14.519Z,24.76
2018-09-12T13:01:48.938Z,24.86
2018-09-12T13:04:17.055Z,24.82
2018-09-12T13:06:45.210Z,24.99
2018-09-12T13:09:13.587Z,24.92
2018-09-12T13:11:41.662Z,24.89
2018-09-12T13:14:16.544Z,25.04
2018-09-12T13:16:47.513Z,24.93
2018-09-12T13:19:15.585Z,25.01
2018-09-12T13:21:48.353Z,25.11
2018-09-12T13:24:16.481Z,24.71
2018-09-12T13:26:44.473Z,24.40
2018-09-12T13:29:12.494Z,24.38
2018-09-12T13:31:41.067Z,24.40
2018-09-12T13:34:09.083Z,24.60
2018-09-12T13:36:37.161Z,24.78
2018-09-12T13:39:09.527Z,24.55
2018-09-12T13:41:37.556Z,24.66
2018-09-12T13:44:05.472Z,24.73
2018-09-12T13:46:33.500Z,24.70
2018-09-12T13:49:01.453Z,24.68
2018-09-12T13:51:29.858Z,24.52
2018-09-12T13:53:57.921Z,24.62
2018-09-12T13:56:25.858Z,24.18
2018-09-12T13:58:53.850Z,24.07
2018-09-12T14:01:21.982Z,23.84
2018-09-12T14:03:49.883Z,24.12
2018-09-12T14:06:18.052Z,24.23
2018-09-12T14:08:45.998Z,23.84
2018-09-12T14:11:14.784Z,24.25
2018-09-12T14:13:42.715Z,24.30
2018-09-12T14:16:10.648Z,24.40
2018-09-12T14:18:38.697Z,24.25
2018-09-12T14:21:06.677Z,24.30
2018-09-12T14:23:34.502Z,24.38
2018-09-12T14:26:02.734Z,24.23
2018-09-12T14:28:30.642Z,24.14
2018-09-12T14:30:58.638Z,24.31
2018-09-12T14:33:27.262Z,24.45
2018-09-12T14:35:55.308Z,24.38
2018-09-12T14:38:23.322Z,24.41
2018-09-12T14:40:51.314Z,24.29
2018-09-12T14:43:19.498Z,24.46
2018-09-12T14:45:48.219Z,24.43
2018-09-12T14:48:16.388Z,24.51
2018-09-12T14:50:46.191Z,24.46
2018-09-12T14:53:14.100Z,24.36
2018-09-12T14:55:42.400Z,24.17
2018-09-12T14:58:10.418Z,23.98
2018-09-12T15:00:38.494Z,23.91
2018-09-12T15:03:08.708Z,23.69
2018-09-12T15:05:38.890Z,23.65
2018-09-12T15:08:06.881Z,23.64
2018-09-12T15:10:34.863Z,23.66
2018-09-12T15:13:02.839Z,23.55
2018-09-12T15:15:31.940Z,23.61
2018-09-12T15:17:59.970Z,23.58
2018-09-12T15:20:27.926Z,23.63
2018-09-12T15:22:55.975Z,23.57
2018-09-12T15:25:23.957Z,23.65
2018-09-12T15:27:52.368Z,23.79
2018-09-12T15:30:20.368Z,23.72
2018-09-12T15:32:48.462Z,23.64
2018-09-12T15:35:16.528Z,23.65
2018-09-12T15:37:44.526Z,23.63
2018-09-12T15:40:14.715Z,23.66
2018-09-12T15:42:44.768Z,23.53
2018-09-12T15:45:12.778Z,23.46
2018-09-12T15:47:43.816Z,23.48
2018-09-12T15:50:14.417Z,23.49
2018-09-12T15:52:43.226Z,23.37
2018-09-12T15:55:11.163Z,23.34
2018-09-12T15:57:39.265Z,23.24
2018-09-12T16:00:07.374Z,23.19
2018-09-12T16:02:35.280Z,23.19
2018-09-12T16:05:03.385Z,23.03
2018-09-12T16:07:31.233Z,23.08
2018-09-12T16:09:59.430Z,23.08
2018-09-12T16:12:27.620Z,23.11
2018-09-12T16:14:56.470Z,23.00
2018-09-12T16:17:24.497Z,22.96
2018-09-12T16:20:25.447Z,22.85
2018-09-12T16:22:54.141Z,22.85
2018-09-12T16:25:25.269Z,22.85
2018-09-12T16:27:53.305Z,22.76
2018-09-12T16:30:21.341Z,22.70
2018-09-12T16:32:49.349Z,22.50
2018-09-12T16:35:17.366Z,22.50
2018-09-12T16:37:45.320Z,22.47
2018-09-12T16:40:18.224Z,22.33
2018-09-12T16:42:47.999Z,22.30
2018-09-12T16:45:17.891Z,22.29
2018-09-12T16:47:45.914Z,22.22
2018-09-12T16:50:16.997Z,22.20
2018-09-12T16:52:46.054Z,21.74
2018-09-12T16:55:15.396Z,22.30
2018-09-12T16:57:45.232Z,22.30
2018-09-12T17:02:58.017Z,22.16
2018-09-12T17:05:26.885Z,22.00
2018-09-12T17:07:54.872Z,21.89
2018-09-12T17:10:24.243Z,21.90
2018-09-12T17:12:53.335Z,21.92
2018-09-12T17:15:27.362Z,21.92
2018-09-12T17:17:55.454Z,21.90
2018-09-12T17:20:30.672Z,21.85
2018-09-12T17:22:58.846Z,21.83
2018-09-12T17:25:29.258Z,21.82
2018-09-12T17:28:03.380Z,21.80
2018-09-12T17:30:35.417Z,21.83
2018-09-12T17:33:05.551Z,21.94
2018-09-12T17:35:33.942Z,22.01
2018-09-12T17:38:43.219Z,22.05
2018-09-12T17:41:12.053Z,21.90
2018-09-12T17:43:42.442Z,21.75
2018-09-12T17:46:11.973Z,21.66
2018-09-12T17:52:02.346Z,21.53
2018-09-12T17:54:33.272Z,21.46
2018-09-12T17:57:03.430Z,21.58
2018-09-12T17:59:42.984Z,21.49
2018-09-12T18:02:21.968Z,21.52
2018-09-12T18:04:50.856Z,21.38
2018-09-12T18:07:51.654Z,21.31
2018-09-12T18:10:20.542Z,21.46
2018-09-12T18:12:48.651Z,21.53
2018-09-12T18:15:16.860Z,21.51
2018-09-12T18:17:45.046Z,21.58
2018-09-12T18:20:13.383Z,21.44
2018-09-12T18:22:42.928Z,21.52
2018-09-12T18:25:12.230Z,21.17
2018-09-12T18:27:40.310Z,20.98
2018-09-12T18:30:08.896Z,20.98
2018-09-12T18:32:37.403Z,20.89
2018-09-12T18:35:09.041Z,20.73
2018-09-12T18:37:41.589Z,20.57
2018-09-12T18:40:10.919Z,20.71
2018-09-12T18:42:39.126Z,20.89
2018-09-12T18:45:11.120Z,20.94
2018-09-12T18:50:23.290Z,21.12
2018-09-12T18:52:55.429Z,21.18
2018-09-12T18:55:24.744Z,21.46
2018-09-12T18:57:52.704Z,21.55
2018-09-12T19:00:21.224Z,21.57
2018-09-12T19:02:49.196Z,21.57
2018-09-12T19:05:17.057Z,21.61
2018-09-12T19:07:45.086Z,21.64
2018-09-12T19:10:13.143Z,21.74
2018-09-12T19:12:41.061Z,21.66
2018-09-12T19:15:09.012Z,21.68
2018-09-12T19:17:37.009Z,21.68
2018-09-12T19:20:05.263Z,21.62
2018-09-12T19:22:33.238Z,21.55
2018-09-12T19:25:01.202Z,21.48
2018-09-12T19:27:29.184Z,21.54
2018-09-12T19:29:57.188Z,21.63
2018-09-12T19:32:26.214Z,21.58
2018-09-12T19:34:54.257Z,21.53
2018-09-12T19:37:22.448Z,21.55
2018-09-12T19:40:04.347Z,21.58
2018-09-12T19:42:32.715Z,21.58
2018-09-12T19:45:00.711Z,21.62
2018-09-12T19:47:28.570Z,21.50
2018-09-12T19:49:56.571Z,21.19
2018-09-12T19:52:24.601Z,21.08
2018-09-12T19:54:52.664Z,20.98
2018-09-12T19:57:20.754Z,20.74
2018-09-12T19:59:48.998Z,20.63
2018-09-12T20:02:32.658Z,20.52
2018-09-12T20:05:00.928Z,20.57
2018-09-12T20:07:30.355Z,20.47
2018-09-12T20:09:58.525Z,20.63
2018-09-12T20:12:27.192Z,20.76
2018-09-12T20:14:55.294Z,20.68
2018-09-12T20:17:23.359Z,20.64
2018-09-12T20:19:51.408Z,20.58
2018-09-12T20:22:19.548Z,20.60
2018-09-12T20:24:47.836Z,20.61
2018-09-12T20:27:15.940Z,20.50
2018-09-12T20:29:44.787Z,20.53
2018-09-12T20:32:12.781Z,20.34
2018-09-12T20:34:41.312Z,20.29
2018-09-12T20:37:10.126Z,20.17
2018-09-12T20:39:38.245Z,20.17
2018-09-12T20:42:06.279Z,20.19
2018-09-12T20:44:34.284Z,20.06
2018-09-12T20:47:02.186Z,20.01
2018-09-12T20:49:30.027Z,19.98
2018-09-12T20:51:57.958Z,19.93
2018-09-12T20:54:25.890Z,19.98
2018-09-12T20:56:53.914Z,19.87
2018-09-12T20:59:21.881Z,19.71
2018-09-12T21:01:49.821Z,19.64
2018-09-12T21:04:17.805Z,19.63
2018-09-12T21:06:45.766Z,19.52
2018-09-12T21:09:20.258Z,19.44
2018-09-12T21:11:48.171Z,19.12
2018-09-12T21:14:16.325Z,19.12
2018-09-12T21:16:44.348Z,19.24
2018-09-12T21:19:12.314Z,19.25
2018-09-12T21:21:40.315Z,19.33
2018-09-12T21:24:08.189Z,19.25
2018-09-12T21:26:36.239Z,19.02
2018-09-12T21:29:04.193Z,18.88
2018-09-12T21:31:32.070Z,18.88
2018-09-12T21:34:00.165Z,18.90
2018-09-12T21:36:28.092Z,18.79
2018-09-12T21:38:56.015Z,18.58
2018-09-12T21:41:23.984Z,18.30
2018-09-12T21:43:51.875Z,18.21
2018-09-12T21:46:21.009Z,18.35
2018-09-12T21:48:48.929Z,18.26
2018-09-12T21:51:16.889Z,18.35
2018-09-12T21:53:44.922Z,18.51
2018-09-12T21:56:12.863Z,18.58
2018-09-12T21:58:40.805Z,18.65
2018-09-12T22:01:08.747Z,18.62
2018-09-12T22:03:36.623Z,18.34
2018-09-12T22:06:04.693Z,18.21
2018-09-12T22:08:32.611Z,18.40
2018-09-12T22:11:00.575Z,18.53
2018-09-12T22:13:28.541Z,18.47
2018-09-12T22:15:56.479Z,18.62
2018-09-12T22:18:24.415Z,18.60
2018-09-12T22:20:52.446Z,18.76
2018-09-12T22:23:20.405Z,18.69
2018-09-12T22:25:48.370Z,18.56
2018-09-12T22:28:16.295Z,18.59
2018-09-12T22:30:44.542Z,18.74
2018-09-12T22:33:12.478Z,18.88
2018-09-12T22:35:41.729Z,18.92
2018-09-12T22:38:09.672Z,19.03
2018-09-12T22:40:37.596Z,19.06
2018-09-12T22:43:05.642Z,19.06
2018-09-12T22:45:33.578Z,19.14
2018-09-12T22:48:01.599Z,19.15
2018-09-12T22:50:29.543Z,19.17
2018-09-12T22:52:57.459Z,19.02
2018-09-12T22:55:25.376Z,19.01
2018-09-12T22:57:53.463Z,18.87
2018-09-12T23:00:21.773Z,18.80
2018-09-12T23:02:49.814Z,18.57
2018-09-12T23:05:18.059Z,18.41
2018-09-12T23:07:46.025Z,18.51
2018-09-12T23:10:13.945Z,18.52
2018-09-12T23:12:41.885Z,18.40
2018-09-12T23:15:09.821Z,18.23
2018-09-12T23:17:37.797Z,18.26
2018-09-12T23:20:06.113Z,18.26
2018-09-12T23:22:34.063Z,18.16
2018-09-12T23:25:02.151Z,18.14
2018-09-12T23:27:30.271Z,18.18
2018-09-12T23:29:58.125Z,18.00
2018-09-12T23:32:26.045Z,17.79
2018-09-12T23:34:54.162Z,17.63
2018-09-12T23:37:22.097Z,17.76
2018-09-12T23:39:50.194Z,17.80
2018-09-12T23:42:18.193Z,17.62
2018-09-12T23:44:46.532Z,17.53
2018-09-12T23:47:14.502Z,17.62
2018-09-12T23:49:42.676Z,17.65
2018-09-12T23:52:10.709Z,17.69
2018-09-12T23:54:39.599Z,17.74
2018-09-12T23:57:07.530Z,17.79
2018-09-12T23:59:35.463Z,17.59
